createdAt,value
2019-02-10T00:01:15.516Z,63.00
2019-02-10T00:03:43.971Z,63.47
2019-02-10T00:06:12.457Z,63.33
2019-02-10T00:08:40.806Z,63.01
2019-02-10T00:11:09.135Z,62.98
2019-02-10T00:13:37.442Z,63.97
2019-02-10T00:16:11.342Z,64.36
2019-02-10T00:18:39.692Z,63.03
2019-02-10T00:21:08.112Z,63.03
2019-02-10T00:23:36.513Z,63.37
2019-02-10T00:26:04.990Z,63.78
2019-02-10T00:28:33.549Z,64.55
2019-02-10T00:31:01.930Z,65.01
2019-02-10T00:33:30.521Z,64.49
2019-02-10T00:35:58.955Z,64.91
2019-02-10T00:38:27.441Z,65.35
2019-02-10T00:40:55.687Z,65.35
2019-02-10T00:43:24.015Z,65.37
2019-02-10T00:45:52.468Z,64.97
2019-02-10T00:48:20.952Z,65.78
2019-02-10T00:50:49.265Z,65.95
2019-02-10T00:53:17.580Z,65.74
2019-02-10T00:55:45.932Z,65.97
2019-02-10T00:58:14.318Z,65.76
2019-02-10T01:00:42.714Z,65.86
2019-02-10T01:03:11.213Z,66.22
2019-02-10T01:05:39.663Z,65.50
2019-02-10T01:08:08.202Z,66.41
2019-02-10T01:10:36.563Z,67.12
2019-02-10T01:13:04.877Z,67.21
2019-02-10T01:15:33.240Z,66.41
2019-02-10T01:18:01.638Z,66.46
2019-02-10T01:20:30.064Z,66.83
2019-02-10T01:22:58.549Z,66.22
2019-02-10T01:25:26.954Z,67.20
2019-02-10T01:27:55.249Z,67.96
2019-02-10T01:30:25.274Z,67.25
2019-02-10T01:32:53.621Z,66.85
2019-02-10T01:35:22.110Z,67.58
2019-02-10T01:37:50.423Z,66.84
2019-02-10T01:40:18.828Z,66.30
2019-02-10T01:42:47.097Z,65.60
2019-02-10T01:45:15.526Z,65.16
2019-02-10T01:47:43.834Z,65.70
2019-02-10T01:50:12.318Z,65.78
2019-02-10T01:52:40.724Z,65.37
2019-02-10T01:55:12.049Z,66.00
2019-02-10T01:57:40.354Z,66.79
2019-02-10T02:00:11.988Z,66.72
2019-02-10T02:02:40.856Z,66.61
2019-02-10T02:05:12.568Z,67.20
2019-02-10T02:07:40.992Z,66.46
2019-02-10T02:10:13.528Z,66.42
2019-02-10T02:12:41.995Z,66.77
2019-02-10T02:15:13.429Z,67.01
2019-02-10T02:17:41.887Z,66.74
2019-02-10T02:20:12.450Z,66.96
2019-02-10T02:22:40.882Z,67.27
2019-02-10T02:25:10.708Z,67.12
2019-02-10T02:27:39.571Z,67.56
2019-02-10T02:30:10.619Z,67.20
2019-02-10T02:32:39.348Z,66.80
2019-02-10T02:35:07.776Z,66.53
2019-02-10T02:37:36.235Z,66.89
2019-02-10T02:40:06.629Z,66.98
2019-02-10T02:42:36.181Z,67.08
2019-02-10T02:45:07.766Z,66.96
2019-02-10T02:47:36.612Z,66.77
2019-02-10T02:50:06.656Z,67.39
2019-02-10T02:52:35.054Z,66.88
2019-02-10T02:55:04.204Z,66.65
2019-02-10T02:57:32.572Z,65.79
2019-02-10T03:00:00.950Z,66.64
2019-02-10T03:02:29.404Z,66.44
2019-02-10T03:04:57.763Z,66.70
2019-02-10T03:07:26.088Z,67.60
2019-02-10T03:09:54.481Z,67.07
2019-02-10T03:12:22.783Z,66.53
2019-02-10T03:14:51.436Z,65.77
2019-02-10T03:17:19.818Z,65.66
2019-02-10T03:19:48.146Z,65.99
2019-02-10T03:22:17.300Z,67.10
2019-02-10T03:24:45.665Z,66.96
2019-02-10T03:27:14.156Z,66.99
2019-02-10T03:29:42.452Z,66.56
2019-02-10T03:32:10.777Z,66.31
2019-02-10T03:34:39.077Z,66.21
2019-02-10T03:37:07.549Z,66.45
2019-02-10T03:39:36.022Z,67.82
2019-02-10T03:42:04.401Z,67.83
2019-02-10T03:44:33.542Z,67.36
2019-02-10T03:47:02.017Z,67.63
2019-02-10T03:49:31.966Z,67.61
2019-02-10T03:52:00.266Z,67.52
2019-02-10T03:54:28.640Z,67.68
2019-02-10T03:56:57.068Z,67.02
2019-02-10T03:59:26.555Z,67.02
2019-02-10T04:01:55.241Z,67.68
2019-02-10T04:04:23.570Z,68.56
2019-02-10T04:06:51.867Z,68.97
2019-02-10T04:09:20.267Z,67.92
2019-02-10T04:11:48.578Z,68.69
2019-02-10T04:14:16.882Z,69.46
2019-02-10T04:16:45.175Z,69.30
2019-02-10T04:19:13.482Z,69.19
2019-02-10T04:21:41.924Z,69.09
2019-02-10T04:24:10.245Z,68.12
2019-02-10T04:26:38.653Z,68.67
2019-02-10T04:29:06.982Z,68.17
2019-02-10T04:31:35.355Z,68.12
2019-02-10T04:34:05.306Z,67.87
2019-02-10T04:36:33.615Z,67.49
2019-02-10T04:39:01.988Z,67.31
2019-02-10T04:41:30.389Z,67.32
2019-02-10T04:43:59.191Z,67.49
2019-02-10T04:46:27.712Z,67.65
2019-02-10T04:48:56.178Z,68.04
2019-02-10T04:51:24.559Z,67.73
2019-02-10T04:53:52.996Z,67.78
2019-02-10T04:56:21.297Z,67.99
2019-02-10T04:58:49.616Z,67.56
2019-02-10T05:01:17.930Z,67.39
2019-02-10T05:03:46.208Z,66.87
2019-02-10T05:06:14.553Z,66.09
2019-02-10T05:08:42.848Z,65.62
2019-02-10T05:11:11.174Z,65.37
2019-02-10T05:13:39.683Z,65.21
2019-02-10T05:16:07.973Z,65.12
2019-02-10T05:18:36.375Z,64.83
2019-02-10T05:21:04.772Z,64.82
2019-02-10T05:23:33.156Z,64.83
2019-02-10T05:26:01.441Z,64.87
2019-02-10T05:28:29.993Z,65.00
2019-02-10T05:30:58.441Z,65.21
2019-02-10T05:33:26.757Z,64.65
2019-02-10T05:35:55.135Z,65.00
2019-02-10T05:38:23.605Z,64.59
2019-02-10T05:40:51.889Z,64.61
2019-02-10T05:43:20.626Z,64.19
2019-02-10T05:45:49.086Z,64.30
2019-02-10T05:48:17.405Z,63.96
2019-02-10T05:50:45.766Z,64.11
2019-02-10T05:53:14.726Z,64.00
2019-02-10T05:55:43.017Z,63.74
2019-02-10T05:58:11.473Z,63.75
2019-02-10T06:00:39.936Z,63.69
2019-02-10T06:03:08.215Z,63.64
2019-02-10T06:05:36.880Z,63.59
2019-02-10T06:08:12.916Z,63.33
2019-02-10T06:10:35.383Z,62.56
2019-02-10T06:13:04.005Z,62.51
2019-02-10T06:15:32.327Z,62.34
2019-02-10T06:18:00.685Z,62.37
2019-02-10T06:20:29.087Z,62.08
2019-02-10T06:22:57.694Z,61.69
2019-02-10T06:25:27.844Z,61.96
2019-02-10T06:27:56.136Z,61.76
2019-02-10T06:30:24.515Z,61.77
2019-02-10T06:32:52.889Z,61.24
2019-02-10T06:35:21.515Z,61.03
2019-02-10T06:37:49.816Z,61.12
2019-02-10T06:40:18.165Z,61.05
2019-02-10T06:42:46.536Z,61.33
2019-02-10T06:45:15.011Z,60.93
2019-02-10T06:47:43.313Z,60.54
2019-02-10T06:50:11.715Z,60.14
2019-02-10T06:52:40.013Z,59.59
2019-02-10T06:55:09.571Z,59.90
2019-02-10T06:57:37.875Z,60.23
2019-02-10T07:00:29.297Z,60.56
2019-02-10T07:03:35.489Z,60.17
2019-02-10T07:06:04.252Z,60.73
2019-02-10T07:08:32.632Z,60.43
2019-02-10T07:11:04.094Z,60.43
2019-02-10T07:13:38.410Z,60.02
2019-02-10T07:16:38.974Z,59.48
2019-02-10T07:19:43.456Z,59.26
2019-02-10T07:22:36.082Z,59.82
2019-02-10T07:25:16.581Z,59.57
2019-02-10T07:27:51.063Z,58.98
2019-02-10T07:30:25.495Z,59.29
2019-02-10T07:33:02.797Z,59.20
2019-02-10T07:35:39.740Z,59.32
2019-02-10T07:38:28.289Z,59.54
2019-02-10T07:41:11.673Z,59.42
2019-02-10T07:44:10.934Z,59.31
2019-02-10T07:47:00.610Z,59.14
2019-02-10T07:49:32.159Z,58.86
2019-02-10T07:52:03.578Z,58.92
2019-02-10T07:54:59.328Z,58.54
2019-02-10T07:57:39.962Z,58.37
2019-02-10T08:00:37.539Z,58.26
2019-02-10T08:03:24.474Z,58.23
2019-02-10T08:05:59.817Z,58.21
2019-02-10T08:08:46.495Z,58.52
2019-02-10T08:11:42.044Z,59.19
2019-02-10T08:14:21.123Z,58.57
2019-02-10T08:16:59.670Z,58.33
2019-02-10T08:19:49.565Z,58.14
2019-02-10T08:22:27.325Z,57.95
2019-02-10T08:24:59.007Z,57.57
2019-02-10T08:27:42.254Z,57.06
2019-02-10T08:30:25.799Z,56.59
2019-02-10T08:33:06.283Z,55.70
2019-02-10T08:36:00.345Z,55.17
2019-02-10T08:38:43.735Z,54.20
2019-02-10T08:41:33.417Z,53.67
2019-02-10T08:44:17.106Z,50.23
2019-02-10T08:47:03.602Z,50.23
2019-02-10T08:49:37.751Z,49.41
2019-02-10T08:52:25.748Z,48.40
2019-02-10T08:54:55.072Z,49.40
2019-02-10T08:57:23.403Z,50.01
2019-02-10T08:59:51.994Z,50.01
2019-02-10T09:02:20.336Z,51.92
2019-02-10T09:04:49.641Z,52.08
2019-02-10T09:07:18.459Z,52.51
2019-02-10T09:09:46.755Z,52.88
2019-02-10T09:12:15.142Z,52.55
2019-02-10T09:14:43.527Z,53.21
2019-02-10T09:17:11.986Z,53.21
2019-02-10T09:19:40.401Z,53.15
2019-02-10T09:22:08.786Z,53.21
2019-02-10T09:24:37.204Z,53.23
2019-02-10T09:27:05.867Z,52.88
2019-02-10T09:29:34.253Z,52.88
2019-02-10T09:32:02.948Z,52.69
2019-02-10T09:34:31.310Z,52.98
2019-02-10T09:36:59.993Z,52.72
2019-02-10T09:39:28.646Z,52.33
2019-02-10T09:41:57.055Z,52.53
2019-02-10T09:44:25.455Z,52.53
2019-02-10T09:46:53.909Z,52.72
2019-02-10T09:49:22.380Z,51.52
2019-02-10T09:51:50.901Z,51.52
2019-02-10T09:54:19.254Z,50.94
2019-02-10T09:56:47.562Z,50.94
2019-02-10T09:59:16.146Z,50.05
2019-02-10T10:01:44.549Z,50.42
2019-02-10T10:04:13.248Z,49.90
2019-02-10T10:06:41.625Z,49.90
2019-02-10T10:09:10.092Z,49.17
2019-02-10T10:11:38.478Z,49.03
2019-02-10T10:14:06.822Z,47.48
2019-02-10T10:16:35.157Z,47.83
2019-02-10T10:19:03.667Z,47.83
2019-02-10T10:21:32.043Z,47.95
2019-02-10T10:24:00.530Z,47.10
2019-02-10T10:26:28.943Z,46.79
2019-02-10T10:28:57.349Z,46.24
2019-02-10T10:31:25.732Z,45.86
2019-02-10T10:33:54.136Z,45.17
2019-02-10T10:36:22.550Z,45.02
2019-02-10T10:38:53.398Z,44.80
2019-02-10T10:41:21.800Z,43.53
2019-02-10T10:43:50.220Z,43.71
2019-02-10T10:46:18.636Z,44.13
2019-02-10T10:48:47.023Z,42.78
2019-02-10T10:51:15.406Z,42.81
2019-02-10T10:53:43.733Z,41.93
2019-02-10T10:56:13.354Z,41.59
2019-02-10T10:58:41.860Z,40.89
2019-02-10T11:01:12.048Z,39.69
2019-02-10T11:03:40.708Z,40.44
2019-02-10T11:06:09.574Z,40.05
2019-02-10T11:08:37.856Z,39.89
2019-02-10T11:11:06.311Z,39.71
2019-02-10T11:13:34.618Z,40.04
2019-02-10T11:16:02.962Z,40.04
2019-02-10T11:18:31.374Z,40.16
2019-02-10T11:21:00.277Z,40.25
2019-02-10T11:23:28.656Z,40.13
2019-02-10T11:25:57.079Z,36.86
2019-02-10T11:28:25.600Z,37.58
2019-02-10T11:30:56.652Z,37.42
2019-02-10T11:33:24.241Z,36.75
2019-02-10T11:35:52.888Z,37.23
2019-02-10T11:38:21.211Z,38.68
2019-02-10T11:40:49.616Z,38.54
2019-02-10T11:43:17.907Z,35.86
2019-02-10T11:45:46.824Z,34.78
2019-02-10T11:48:17.554Z,32.68
2019-02-10T11:50:46.402Z,31.69
2019-02-10T11:53:14.949Z,32.95
2019-02-10T11:55:43.399Z,34.87
2019-02-10T11:58:13.082Z,35.10
2019-02-10T12:00:41.772Z,35.63
2019-02-10T12:03:10.423Z,35.70
2019-02-10T12:05:39.097Z,34.57
2019-02-10T12:08:07.702Z,34.30
2019-02-10T12:10:36.378Z,34.99
2019-02-10T12:13:04.828Z,35.00
2019-02-10T12:15:33.253Z,35.79
2019-02-10T12:18:01.605Z,36.21
2019-02-10T12:20:29.997Z,36.56
2019-02-10T12:22:58.573Z,38.13
2019-02-10T12:25:26.910Z,38.26
2019-02-10T12:27:56.877Z,37.56
2019-02-10T12:30:25.514Z,37.51
2019-02-10T12:32:54.091Z,38.88
2019-02-10T12:35:22.476Z,39.30
2019-02-10T12:37:51.048Z,39.40
2019-02-10T12:40:19.353Z,40.30
2019-02-10T12:42:48.139Z,39.41
2019-02-10T12:45:16.548Z,40.28
2019-02-10T12:47:45.217Z,40.71
2019-02-10T12:50:14.851Z,41.95
2019-02-10T12:52:43.225Z,40.92
2019-02-10T12:55:12.486Z,42.49
2019-02-10T12:57:40.862Z,44.85
2019-02-10T13:00:17.159Z,45.49
2019-02-10T13:02:45.689Z,45.04
2019-02-10T13:05:14.191Z,46.20
2019-02-10T13:07:42.511Z,48.54
2019-02-10T13:10:13.074Z,50.78
2019-02-10T13:12:41.450Z,53.74
2019-02-10T13:15:10.900Z,54.88
2019-02-10T13:17:39.307Z,57.00
2019-02-10T13:20:12.578Z,59.03
2019-02-10T13:22:40.929Z,60.53
2019-02-10T13:25:11.403Z,62.54
2019-02-10T13:27:40.453Z,65.10
2019-02-10T13:30:19.551Z,67.89
2019-02-10T13:32:48.002Z,67.89
2019-02-10T13:35:16.567Z,68.10
2019-02-10T13:37:45.129Z,68.97
2019-02-10T13:40:22.473Z,68.97
2019-02-10T13:42:50.777Z,70.22
2019-02-10T13:45:19.181Z,70.22
2019-02-10T13:47:47.667Z,71.26
2019-02-10T13:50:18.059Z,70.38
2019-02-10T13:52:48.104Z,70.65
2019-02-10T13:55:16.858Z,69.74
2019-02-10T13:57:45.415Z,70.43
2019-02-10T14:00:24.757Z,70.93
2019-02-10T14:02:53.180Z,70.93
2019-02-10T14:05:21.558Z,71.59
2019-02-10T14:07:51.006Z,71.59
2019-02-10T14:10:25.344Z,72.36
2019-02-10T14:12:50.006Z,71.85
2019-02-10T14:15:19.642Z,72.17
2019-02-10T14:17:48.132Z,72.46
2019-02-10T14:20:20.337Z,72.69
2019-02-10T14:22:48.849Z,73.43
2019-02-10T14:25:17.528Z,73.43
2019-02-10T14:27:45.943Z,73.07
2019-02-10T14:30:19.508Z,73.46
2019-02-10T14:32:48.095Z,73.88
2019-02-10T14:35:16.501Z,73.62
2019-02-10T14:37:45.263Z,73.95
2019-02-10T14:40:13.684Z,73.43
2019-02-10T14:42:42.153Z,75.21
2019-02-10T14:45:13.188Z,75.46
2019-02-10T14:47:44.556Z,75.46
2019-02-10T14:50:17.811Z,74.58
2019-02-10T14:52:46.258Z,75.44
2019-02-10T14:55:14.731Z,75.55
2019-02-10T14:57:43.148Z,74.84
2019-02-10T15:00:14.855Z,74.20
2019-02-10T15:02:43.423Z,75.64
2019-02-10T15:05:12.101Z,75.33
2019-02-10T15:07:40.737Z,75.65
2019-02-10T15:10:33.234Z,75.46
2019-02-10T15:13:02.602Z,75.33
2019-02-10T15:15:30.951Z,75.91
2019-02-10T15:17:59.497Z,76.01
2019-02-10T15:20:27.930Z,75.90
2019-02-10T15:22:56.489Z,76.39
2019-02-10T15:25:26.019Z,77.54
2019-02-10T15:27:54.555Z,77.22
2019-02-10T15:30:25.832Z,78.01
2019-02-10T15:32:55.337Z,77.99
2019-02-10T15:35:23.801Z,78.89
2019-02-10T15:37:54.961Z,79.47
2019-02-10T15:40:23.443Z,80.09
2019-02-10T15:42:53.146Z,81.02
2019-02-10T15:45:23.341Z,82.40
2019-02-10T15:47:52.255Z,82.93
2019-02-10T15:50:20.662Z,82.85
2019-02-10T15:52:48.996Z,84.49
2019-02-10T15:55:17.552Z,83.49
2019-02-10T15:57:46.192Z,84.14
2019-02-10T16:00:28.791Z,82.91
2019-02-10T16:02:57.652Z,82.61
2019-02-10T16:05:26.362Z,83.23
2019-02-10T16:07:54.671Z,83.69
2019-02-10T16:10:25.006Z,83.45
2019-02-10T16:12:53.380Z,83.12
2019-02-10T16:15:21.715Z,83.07
2019-02-10T16:17:50.375Z,82.89
2019-02-10T16:20:18.805Z,83.32
2019-02-10T16:22:47.275Z,82.92
2019-02-10T16:25:16.016Z,82.80
2019-02-10T16:27:44.364Z,83.31
2019-02-10T16:30:17.306Z,83.30
2019-02-10T16:32:49.907Z,83.80
2019-02-10T16:35:15.749Z,83.56
2019-02-10T16:37:44.355Z,83.53
2019-02-10T16:40:17.892Z,83.05
2019-02-10T16:42:46.852Z,83.83
2019-02-10T16:45:15.341Z,82.58
2019-02-10T16:47:44.334Z,82.67
2019-02-10T16:50:17.148Z,82.09
2019-02-10T16:52:45.482Z,82.58
2019-02-10T16:55:18.534Z,81.61
2019-02-10T16:57:46.960Z,81.23
2019-02-10T17:00:17.479Z,81.01
2019-02-10T17:02:46.037Z,81.03
2019-02-10T17:05:16.243Z,80.74
2019-02-10T17:07:45.371Z,81.31
2019-02-10T17:10:21.729Z,80.73
2019-02-10T17:12:50.276Z,80.27
2019-02-10T17:15:18.662Z,80.61
2019-02-10T17:17:47.199Z,79.98
2019-02-10T17:20:16.714Z,79.86
2019-02-10T17:22:45.367Z,79.19
2019-02-10T17:25:19.228Z,78.28
2019-02-10T17:27:47.671Z,78.77
2019-02-10T17:30:16.701Z,76.80
2019-02-10T17:32:45.018Z,77.16
2019-02-10T17:35:14.547Z,75.94
2019-02-10T17:37:42.999Z,75.36
2019-02-10T17:40:34.545Z,75.26
2019-02-10T17:43:03.249Z,75.77
2019-02-10T17:45:31.808Z,75.43
2019-02-10T17:48:00.114Z,75.18
2019-02-10T17:50:28.597Z,79.58
2019-02-10T17:52:56.985Z,77.72
2019-02-10T17:55:25.474Z,76.97
2019-02-10T17:57:53.977Z,78.37
2019-02-10T18:00:24.050Z,78.54
2019-02-10T18:02:55.694Z,78.59
2019-02-10T18:05:24.471Z,78.07
2019-02-10T18:07:53.964Z,77.45
2019-02-10T18:10:22.351Z,78.35
2019-02-10T18:12:50.878Z,77.76
2019-02-10T18:15:25.304Z,77.63
2019-02-10T18:18:01.365Z,76.83
2019-02-10T18:20:40.716Z,77.13
2019-02-10T18:23:13.140Z,76.98
2019-02-10T18:25:43.948Z,76.81
2019-02-10T18:28:25.716Z,76.49
2019-02-10T18:31:07.767Z,75.36
2019-02-10T18:33:37.853Z,74.98
2019-02-10T18:36:09.858Z,75.09
2019-02-10T18:38:40.012Z,74.14
2019-02-10T18:41:27.204Z,73.99
2019-02-10T18:43:59.995Z,74.38
2019-02-10T18:46:46.219Z,74.16
2019-02-10T18:49:16.322Z,75.03
2019-02-10T18:51:49.789Z,74.91
2019-02-10T18:54:19.746Z,75.18
2019-02-10T18:56:50.727Z,75.21
2019-02-10T18:59:23.685Z,75.63
2019-02-10T19:01:53.797Z,75.88
2019-02-10T19:04:29.731Z,75.69
2019-02-10T19:07:07.477Z,76.14
2019-02-10T19:09:37.982Z,75.28
2019-02-10T19:12:21.727Z,74.99
2019-02-10T19:15:00.842Z,74.28
2019-02-10T19:17:31.221Z,72.41
2019-02-10T19:20:05.775Z,72.12
2019-02-10T19:22:38.775Z,72.28
2019-02-10T19:25:17.857Z,71.19
2019-02-10T19:27:47.932Z,70.69
2019-02-10T19:30:27.298Z,70.48
2019-02-10T19:33:06.863Z,70.98
2019-02-10T19:35:36.844Z,70.49
2019-02-10T19:38:12.616Z,70.50
2019-02-10T19:40:51.598Z,70.59
2019-02-10T19:43:24.574Z,71.34
2019-02-10T19:46:12.721Z,71.77
2019-02-10T19:48:42.969Z,71.96
2019-02-10T19:51:22.666Z,72.36
2019-02-10T19:53:52.689Z,72.45
2019-02-10T19:56:31.528Z,71.99
2019-02-10T19:59:07.458Z,72.13
2019-02-10T20:01:49.503Z,72.56
2019-02-10T20:04:19.521Z,72.79
2019-02-10T20:07:05.375Z,72.57
2019-02-10T20:09:44.362Z,71.39
2019-02-10T20:12:26.156Z,70.93
2019-02-10T20:15:14.940Z,71.25
2019-02-10T20:18:00.137Z,70.44
2019-02-10T20:20:34.175Z,70.24
2019-02-10T20:23:14.287Z,70.17
2019-02-10T20:25:44.140Z,69.71
2019-02-10T20:28:30.267Z,69.04
2019-02-10T20:31:05.776Z,69.13
2019-02-10T20:33:32.389Z,70.19
2019-02-10T20:36:20.630Z,71.62
2019-02-10T20:38:50.692Z,72.51
2019-02-10T20:41:20.797Z,73.62
2019-02-10T20:43:54.193Z,73.18
2019-02-10T20:46:30.450Z,74.10
2019-02-10T20:49:18.558Z,74.76
2019-02-10T20:52:00.962Z,75.22
2019-02-10T20:54:45.834Z,75.91
2019-02-10T20:57:21.723Z,78.36
2019-02-10T20:59:59.794Z,79.45
2019-02-10T21:02:32.492Z,80.39
2019-02-10T21:05:02.909Z,80.39
2019-02-10T21:07:33.063Z,81.00
2019-02-10T21:10:19.682Z,83.41
2019-02-10T21:12:52.385Z,83.72
2019-02-10T21:15:38.663Z,84.19
2019-02-10T21:18:18.031Z,82.84
2019-02-10T21:20:51.304Z,83.91
2019-02-10T21:23:30.217Z,84.82
2019-02-10T21:26:05.824Z,85.93
2019-02-10T21:28:36.350Z,85.42
2019-02-10T21:31:09.345Z,86.34
2019-02-10T21:33:39.825Z,86.61
2019-02-10T21:36:26.937Z,86.27
2019-02-10T21:39:16.650Z,85.98
2019-02-10T21:42:05.666Z,86.20
2019-02-10T21:44:42.188Z,86.35
2019-02-10T21:47:15.496Z,84.99
2019-02-10T21:49:43.765Z,85.74
2019-02-10T21:52:13.703Z,85.09
2019-02-10T21:54:42.111Z,85.10
2019-02-10T21:57:12.716Z,85.20
2019-02-10T21:59:40.481Z,85.20
2019-02-10T22:02:08.990Z,85.01
2019-02-10T22:04:37.354Z,84.46
2019-02-10T22:07:05.903Z,84.73
2019-02-10T22:09:34.310Z,84.37
2019-02-10T22:12:03.653Z,85.10
2019-02-10T22:14:32.118Z,84.41
2019-02-10T22:17:00.451Z,84.10
2019-02-10T22:19:28.843Z,84.17
2019-02-10T22:21:57.122Z,84.45
2019-02-10T22:24:25.544Z,84.92
2019-02-10T22:26:53.840Z,84.47
2019-02-10T22:29:22.210Z,84.61
2019-02-10T22:31:50.578Z,84.57
2019-02-10T22:34:18.879Z,84.66
2019-02-10T22:36:47.233Z,84.40
2019-02-10T22:39:15.662Z,84.16
2019-02-10T22:41:44.189Z,83.48
2019-02-10T22:44:12.561Z,83.14
2019-02-10T22:46:40.964Z,83.18
2019-02-10T22:49:09.285Z,83.35
2019-02-10T22:51:37.616Z,83.06
2019-02-10T22:54:05.932Z,82.48
2019-02-10T22:56:34.372Z,82.50
2019-02-10T22:59:02.733Z,82.90
2019-02-10T23:01:31.090Z,83.13
2019-02-10T23:03:59.421Z,82.81
2019-02-10T23:06:27.703Z,83.02
2019-02-10T23:08:56.145Z,83.32
2019-02-10T23:11:24.474Z,83.15
2019-02-10T23:13:52.817Z,83.32
2019-02-10T23:16:21.102Z,82.80
2019-02-10T23:18:49.690Z,83.39
2019-02-10T23:21:19.388Z,83.22
2019-02-10T23:23:47.780Z,83.42
2019-02-10T23:26:16.071Z,83.86
2019-02-10T23:28:44.423Z,83.62
2019-02-10T23:31:12.778Z,83.11
2019-02-10T23:33:41.185Z,83.75
2019-02-10T23:36:09.474Z,83.36
2019-02-10T23:38:38.047Z,83.12
2019-02-10T23:41:06.321Z,83.85
2019-02-10T23:43:34.656Z,82.78
2019-02-10T23:46:02.996Z,83.01
2019-02-10T23:48:31.325Z,83.34
2019-02-10T23:50:59.619Z,83.38
2019-02-10T23:53:27.902Z,82.68
2019-02-10T23:55:56.271Z,82.14
2019-02-10T23:58:24.908Z,82.27
